Time;durP1;ratioP1;P1;durP2;ratioP2;P2;SDS_P1;SDS_P2;PMS_P1;PMS_P2;Temp;Humidity;BMP_temperature;BMP_pressure;BME280_temperature;BME280_humidity;BME280_pressure;Samples;Min_cycle;Max_cycle;Signal;HPM_P1;HPM_P2
2022/11/14 00:01:46;;;;;;;55.78;26.40;;;;;;;3.24;72.72;99130.06;5141403;28;20054;-72
2022/11/14 00:04:55;;;;;;;54.00;25.35;;;;;;;3.11;72.30;99116.03;5143685;28;20062;-70
2022/11/14 00:08:04;;;;;;;53.42;25.48;;;;;;;3.10;72.14;99138.75;5140668;28;20104;-70
2022/11/14 00:11:13;;;;;;;47.35;24.15;;;;;;;3.09;72.43;99147.56;5143713;28;20078;-70
2022/11/14 00:14:22;;;;;;;48.55;24.20;;;;;;;3.07;71.83;99149.44;5142161;28;20422;-72
2022/11/14 00:17:31;;;;;;;46.03;23.15;;;;;;;2.99;72.46;99133.34;5143539;28;20061;-70
2022/11/14 00:20:40;;;;;;;44.63;23.08;;;;;;;3.03;72.60;99137.47;5142336;28;20085;-71
2022/11/14 00:23:49;;;;;;;44.30;23.23;;;;;;;2.87;72.51;99149.78;5141243;28;20095;-71
2022/11/14 00:26:58;;;;;;;44.15;23.05;;;;;;;2.84;72.47;99142.94;5138273;28;20153;-70
2022/11/14 00:30:07;;;;;;;44.65;23.60;;;;;;;2.71;73.47;99129.75;5141918;28;20129;-69
2022/11/14 00:33:18;;;;;;;42.53;21.75;;;;;;;2.81;73.42;99146.63;5142349;28;20489;-71
2022/11/14 00:36:28;;;;;;;38.45;21.42;;;;;;;2.78;73.87;99145.94;5141146;28;20425;-70
2022/11/14 00:39:37;;;;;;;35.65;20.23;;;;;;;2.61;72.96;99128.59;5141881;28;20109;-71
2022/11/14 00:42:46;;;;;;;36.40;21.00;;;;;;;2.76;73.30;99140.78;5140808;28;20185;-70
2022/11/14 00:45:55;;;;;;;36.50;20.13;;;;;;;2.85;72.92;99141.16;5140223;28;20185;-70
2022/11/14 00:49:04;;;;;;;37.70;21.65;;;;;;;2.91;72.52;99136.41;5138598;28;20105;-71
2022/11/14 00:52:13;;;;;;;37.30;20.83;;;;;;;2.83;73.33;99136.03;5142229;28;20051;-70
2022/11/14 00:55:22;;;;;;;39.17;20.50;;;;;;;2.85;73.68;99128.06;5141511;28;20421;-71
2022/11/14 00:58:31;;;;;;;39.63;20.08;;;;;;;2.80;73.06;99125.75;5138475;28;20489;-71
2022/11/14 01:01:40;;;;;;;34.90;19.30;;;;;;;2.81;73.18;99128.28;5140188;28;20051;-69
2022/11/14 01:04:49;;;;;;;41.50;20.67;;;;;;;2.76;72.88;99129.47;5135990;28;20220;-70
2022/11/14 01:07:58;;;;;;;37.42;19.20;;;;;;;2.78;72.68;99120.63;5139635;28;20053;-70
2022/11/14 01:11:14;;;;;;;37.38;17.63;;;;;;;2.77;71.68;99112.84;5140007;28;20126;-70
2022/11/14 01:14:23;;;;;;;34.03;18.58;;;;;;;2.73;72.46;99104.31;5141276;28;20077;-70
2022/11/14 01:17:32;;;;;;;42.50;19.98;;;;;;;2.63;73.07;99116.28;5140426;28;20055;-71
2022/11/14 01:20:43;;;;;;;38.85;18.92;;;;;;;2.68;71.99;99116.00;5141369;28;20050;-71
2022/11/14 01:23:52;;;;;;;37.58;19.10;;;;;;;2.73;72.37;99096.47;5138542;28;20046;-70
2022/11/14 01:27:01;;;;;;;33.95;17.42;;;;;;;2.95;73.02;99100.41;5138312;28;20061;-71
2022/11/14 01:30:11;;;;;;;38.22;17.80;;;;;;;3.01;72.43;99103.50;5140715;28;20137;-71
2022/11/14 01:33:20;;;;;;;39.90;18.75;;;;;;;3.16;71.95;99103.50;5140894;28;20054;-71
2022/11/14 01:36:29;;;;;;;38.10;19.50;;;;;;;2.94;71.99;99096.09;5141452;28;20460;-71
2022/11/14 01:39:38;;;;;;;42.08;20.35;;;;;;;2.91;73.06;99101.53;5140867;28;20046;-71
2022/11/14 01:43:15;;;;;;;42.45;18.75;;;;;;;2.83;72.38;99094.97;5140321;28;20497;-72
2022/11/14 01:46:30;;;;;;;47.05;22.95;;;;;;;2.89;73.26;99092.94;5139112;28;20047;-71
2022/11/14 01:49:42;;;;;;;34.83;18.58;;;;;;;2.75;72.86;99068.44;5141236;28;20053;-72
2022/11/14 01:52:51;;;;;;;34.75;17.35;;;;;;;2.70;72.50;99080.09;5140594;28;20417;-71
2022/11/14 01:56:04;;;;;;;36.20;17.13;;;;;;;2.66;72.69;99076.81;5141163;28;20050;-70
2022/11/14 01:59:19;;;;;;;35.35;18.75;;;;;;;2.63;72.40;99076.16;5136541;28;20464;-70
2022/11/14 02:02:28;;;;;;;34.53;18.40;;;;;;;2.57;72.29;99078.22;5141363;28;20560;-73
2022/11/14 02:05:38;;;;;;;33.58;19.05;;;;;;;2.52;72.63;99068.97;5140694;28;20563;-69
2022/11/14 02:08:49;;;;;;;39.30;19.20;;;;;;;2.48;72.31;99062.19;5141316;28;20054;-71
2022/11/14 02:12:01;;;;;;;37.63;18.85;;;;;;;2.36;72.42;99048.09;5138926;28;20054;-70
2022/11/14 02:15:10;;;;;;;34.40;16.67;;;;;;;2.49;72.18;99058.69;5138414;28;20493;-70
2022/11/14 02:18:19;;;;;;;37.17;18.38;;;;;;;2.50;72.94;99065.59;5140954;28;20124;-70
2022/11/14 02:21:28;;;;;;;34.55;17.52;;;;;;;2.46;72.84;99056.25;5138387;28;20109;-71
2022/11/14 02:24:37;;;;;;;32.85;17.33;;;;;;;2.51;72.76;99060.25;5140283;28;20106;-71
2022/11/14 02:27:46;;;;;;;34.15;17.20;;;;;;;2.36;72.35;99045.47;5137581;28;20073;-71
2022/11/14 02:30:55;;;;;;;36.47;18.10;;;;;;;2.58;72.41;99061.59;5139347;28;20047;-71
2022/11/14 02:34:04;;;;;;;38.90;19.10;;;;;;;2.53;72.27;99063.63;5140994;28;20405;-69
2022/11/14 02:37:13;;;;;;;41.13;20.83;;;;;;;2.40;73.12;99044.34;5139257;28;20848;-71
2022/11/14 02:40:22;;;;;;;38.70;19.20;;;;;;;2.63;73.70;99058.69;5141189;28;20046;-70
2022/11/14 02:43:31;;;;;;;43.90;21.30;;;;;;;2.99;74.04;99050.38;5137923;28;20054;-69
2022/11/14 02:46:39;;;;;;;44.42;22.38;;;;;;;3.13;73.68;99046.88;5140210;28;20058;-69
2022/11/14 02:49:48;;;;;;;48.63;22.30;;;;;;;3.32;74.12;99046.56;5136901;28;20069;-71
2022/11/14 02:52:57;;;;;;;48.53;22.60;;;;;;;3.47;73.83;99042.13;5137843;28;20189;-71
2022/11/14 02:56:06;;;;;;;52.15;23.98;;;;;;;3.52;74.99;99048.78;5144753;28;20074;-70
2022/11/14 02:59:15;;;;;;;49.50;23.23;;;;;;;3.74;73.67;99053.50;5141947;28;20085;-70
2022/11/14 03:02:24;;;;;;;52.45;23.80;;;;;;;3.72;74.58;99055.34;5143523;28;20524;-70
2022/11/14 03:05:34;;;;;;;47.92;22.38;;;;;;;3.68;73.71;99056.50;5144832;28;20058;-70
2022/11/14 03:08:42;;;;;;;52.33;24.25;;;;;;;3.69;73.88;99058.16;5145281;28;20517;-70
2022/11/14 03:11:52;;;;;;;50.22;23.52;;;;;;;3.58;73.99;99058.03;5130317;28;20105;-70
2022/11/14 03:15:00;;;;;;;46.97;22.83;;;;;;;3.69;72.87;99058.16;5140287;28;20062;-72
2022/11/14 03:18:09;;;;;;;49.58;21.88;;;;;;;3.40;73.98;99054.78;5142169;28;20101;-72
2022/11/14 03:21:21;;;;;;;49.60;22.70;;;;;;;3.46;74.45;99048.31;5144277;28;20078;-70
2022/11/14 03:24:30;;;;;;;43.45;21.35;;;;;;;3.35;73.76;99035.91;5145190;28;20078;-71
2022/11/14 03:27:39;;;;;;;43.53;21.38;;;;;;;3.21;72.44;99031.53;5133862;28;20189;-71
2022/11/14 03:30:48;;;;;;;42.35;21.15;;;;;;;2.93;74.01;99028.94;5138565;28;20055;-72
2022/11/14 03:33:57;;;;;;;38.10;19.77;;;;;;;2.99;73.20;99028.56;5141150;28;20055;-72
2022/11/14 03:37:06;;;;;;;43.33;21.00;;;;;;;3.05;72.82;99020.34;5141870;28;20050;-69
2022/11/14 03:40:15;;;;;;;38.38;18.60;;;;;;;2.92;73.43;99014.19;5142667;28;20425;-72
2022/11/14 03:43:25;;;;;;;38.67;19.20;;;;;;;2.89;73.05;99007.34;5141136;28;20533;-71
2022/11/14 03:46:34;;;;;;;33.63;17.35;;;;;;;2.83;73.10;98990.22;5143348;28;20543;-70
2022/11/14 03:49:43;;;;;;;36.30;18.05;;;;;;;2.83;73.12;98994.63;5143237;28;20452;-70
2022/11/14 03:52:52;;;;;;;34.53;17.38;;;;;;;2.77;73.25;98982.75;5140163;28;20070;-72
2022/11/14 03:56:01;;;;;;;31.50;16.50;;;;;;;2.53;72.70;98976.41;5140730;28;20049;-70
2022/11/14 03:59:10;;;;;;;37.35;18.17;;;;;;;2.71;72.95;98995.38;5139036;28;20043;-69
2022/11/14 04:02:19;;;;;;;33.83;17.00;;;;;;;2.72;72.58;99013.63;5140378;28;20604;-70
2022/11/14 04:05:28;;;;;;;35.00;17.42;;;;;;;2.64;72.52;99021.09;5138429;28;20136;-71
2022/11/14 04:08:39;;;;;;;35.47;16.88;;;;;;;2.58;73.34;99027.56;5142078;28;20112;-69
2022/11/14 04:11:48;;;;;;;36.85;18.80;;;;;;;2.80;72.42;99042.78;5143096;28;20047;-70
2022/11/14 04:14:57;;;;;;;41.85;20.15;;;;;;;2.80;75.31;99048.03;5135696;28;20058;-72
2022/11/14 04:18:06;;;;;;;42.95;20.35;;;;;;;3.01;75.08;99037.16;5139799;28;20137;-70
2022/11/14 04:21:15;;;;;;;40.17;20.27;;;;;;;3.18;73.78;99036.97;5141744;28;20049;-70
2022/11/14 04:24:23;;;;;;;42.47;20.67;;;;;;;3.04;74.18;99034.34;5142500;28;20062;-71
2022/11/14 04:27:32;;;;;;;45.55;21.27;;;;;;;3.15;74.15;99029.31;5141256;28;20105;-72
2022/11/14 04:30:43;;;;;;;46.13;21.35;;;;;;;3.28;73.83;99017.09;5142230;28;20523;-69
2022/11/14 04:33:52;;;;;;;42.75;20.55;;;;;;;3.43;74.04;99010.03;5141895;28;20075;-71
2022/11/14 04:37:01;;;;;;;51.05;22.15;;;;;;;3.29;73.03;99007.47;5140691;28;20425;-71
2022/11/14 04:40:10;;;;;;;44.75;21.10;;;;;;;3.24;73.35;98996.41;5141517;28;20472;-71
2022/11/14 04:43:20;;;;;;;41.97;20.73;;;;;;;3.16;73.22;99002.16;5141459;28;20074;-71
2022/11/14 04:46:28;;;;;;;44.00;20.83;;;;;;;3.05;73.74;98986.28;5139210;28;20525;-70
2022/11/14 04:49:37;;;;;;;42.83;20.15;;;;;;;2.98;74.09;98979.72;5141491;28;20449;-71
2022/11/14 04:52:50;;;;;;;40.75;19.30;;;;;;;3.00;73.21;98985.72;5142792;28;20062;-71
2022/11/14 04:55:59;;;;;;;43.53;21.00;;;;;;;2.95;74.39;98970.31;5139475;28;20553;-71
2022/11/14 04:59:08;;;;;;;45.45;19.83;;;;;;;3.13;73.60;98973.53;5137238;28;20062;-70
2022/11/14 05:02:17;;;;;;;44.03;18.95;;;;;;;3.34;73.25;98983.56;5138042;28;20058;-69
2022/11/14 05:05:26;;;;;;;34.75;17.98;;;;;;;3.24;71.85;98983.31;5139403;28;20101;-72
2022/11/14 05:08:34;;;;;;;39.80;17.60;;;;;;;3.04;73.00;98974.94;5141081;28;20061;-69
2022/11/14 05:11:43;;;;;;;41.00;19.58;;;;;;;2.97;72.76;98959.72;5138956;28;20098;-69
2022/11/14 05:14:52;;;;;;;45.45;19.83;;;;;;;2.92;73.76;98962.63;5139564;28;20617;-72
2022/11/14 05:18:01;;;;;;;40.28;18.65;;;;;;;2.80;72.79;98938.03;5159646;23;20185;-87
2022/11/14 05:21:13;;;;;;;41.92;18.80;;;;;;;2.97;73.31;98971.03;5139091;28;20089;-88
2022/11/14 05:24:23;;;;;;;43.10;19.42;;;;;;;2.71;72.60;98949.09;5140392;28;20058;-86
2022/11/14 05:27:32;;;;;;;40.33;17.63;;;;;;;2.61;73.14;98936.66;5139570;28;20695;-87
2022/11/14 05:30:41;;;;;;;37.63;17.27;;;;;;;2.67;73.25;98952.84;5138676;28;20050;-87
2022/11/14 05:33:51;;;;;;;37.08;17.38;;;;;;;2.69;73.10;98939.66;5138582;28;20105;-86
2022/11/14 05:37:02;;;;;;;40.25;18.23;;;;;;;2.64;72.71;98933.88;5140661;28;20134;-87
2022/11/14 05:40:11;;;;;;;37.70;16.45;;;;;;;2.63;73.39;98953.97;5138362;28;20054;-86
2022/11/14 05:43:20;;;;;;;39.83;17.40;;;;;;;2.40;71.91;98857.72;5138646;28;20054;-86
2022/11/14 05:46:30;;;;;;;39.13;17.38;;;;;;;2.60;72.10;98914.91;5138575;28;20142;-86
2022/11/14 05:49:39;;;;;;;38.67;17.95;;;;;;;2.50;73.03;98939.97;5138206;28;20085;-86
2022/11/14 05:52:49;;;;;;;39.53;18.35;;;;;;;2.39;72.94;98913.63;5139753;28;20093;-87
2022/11/14 05:56:06;;;;;;;36.38;18.25;;;;;;;2.39;73.34;98905.78;5139576;28;20117;-85
2022/11/14 05:59:17;;;;;;;36.53;17.20;;;;;;;2.53;73.52;98913.59;5138691;28;20579;-86
2022/11/14 06:02:26;;;;;;;39.95;17.90;;;;;;;2.50;73.48;98903.31;5149004;28;20054;-85
2022/11/14 06:05:35;;;;;;;41.92;18.50;;;;;;;2.69;73.57;98931.81;5146623;28;20165;-84
2022/11/14 06:08:44;;;;;;;40.40;18.52;;;;;;;2.56;73.32;98916.88;5139733;28;20050;-84
2022/11/14 06:11:53;;;;;;;42.75;19.35;;;;;;;2.81;72.82;98920.56;5151442;28;20062;-84
2022/11/14 06:15:03;;;;;;;42.58;19.27;;;;;;;3.08;73.67;98957.28;5159624;23;20461;-70
2022/11/14 06:18:14;;;;;;;47.10;19.58;;;;;;;3.20;73.75;98955.63;5132248;28;20109;-69
2022/11/14 06:21:32;;;;;;;44.58;19.55;;;;;;;3.18;72.81;98968.84;5134500;28;20559;-71
2022/11/14 06:24:42;;;;;;;49.57;20.57;;;;;;;2.81;73.04;98939.75;5137735;28;20054;-70
2022/11/14 06:27:51;;;;;;;39.85;18.48;;;;;;;3.07;73.17;98966.06;5123063;28;20356;-70
2022/11/14 06:31:03;;;;;;;44.75;19.42;;;;;;;3.06;73.22;98970.44;5120377;28;20047;-68
2022/11/14 06:34:12;;;;;;;42.83;18.95;;;;;;;3.19;73.98;98964.44;5126110;28;20465;-70
2022/11/14 06:37:21;;;;;;;44.08;20.33;;;;;;;3.23;73.13;98955.44;5128807;28;20085;-69
2022/11/14 06:40:30;;;;;;;43.10;19.45;;;;;;;3.33;72.98;98961.78;5126618;28;20199;-70
2022/11/14 06:43:41;;;;;;;42.45;18.52;;;;;;;3.38;73.51;98959.72;5126784;28;20058;-71
2022/11/14 06:46:50;;;;;;;46.97;20.83;;;;;;;3.23;73.89;98937.09;5136938;28;20089;-70
2022/11/14 06:49:59;;;;;;;84.30;30.90;;;;;;;3.43;73.68;98952.38;5134325;28;20185;-71
2022/11/14 06:53:08;;;;;;;77.97;27.83;;;;;;;3.65;73.93;98987.69;5132456;28;20071;-69
2022/11/14 06:56:19;;;;;;;64.40;26.58;;;;;;;3.85;73.75;98975.88;5137361;28;20825;-72
2022/11/14 06:59:28;;;;;;;54.38;24.95;;;;;;;4.13;73.83;98987.97;5133736;28;20548;-69
2022/11/14 07:02:36;;;;;;;44.08;20.13;;;;;;;4.32;74.06;98974.47;5136465;28;20495;-70
2022/11/14 07:05:46;;;;;;;46.00;20.13;;;;;;;4.35;73.62;98956.72;5138391;28;20576;-70
2022/11/14 07:08:56;;;;;;;54.72;22.30;;;;;;;4.60;72.52;98960.25;5135099;28;20086;-71
2022/11/14 07:12:05;;;;;;;46.85;21.05;;;;;;;4.57;73.77;98963.09;5136055;28;20456;-70
2022/11/14 07:15:14;;;;;;;50.45;21.73;;;;;;;4.75;72.80;98958.34;5137841;28;20113;-70
2022/11/14 07:18:23;;;;;;;46.20;20.65;;;;;;;4.88;72.06;98969.69;5138738;28;20055;-71
2022/11/14 07:21:33;;;;;;;48.83;19.88;;;;;;;4.97;72.02;98974.28;5136200;28;20051;-68
2022/11/14 07:24:42;;;;;;;47.90;20.63;;;;;;;4.89;72.89;98974.81;5136000;28;20058;-68
2022/11/14 07:27:51;;;;;;;43.03;19.83;;;;;;;4.95;72.54;98960.41;5132748;28;20054;-69
2022/11/14 07:31:05;;;;;;;46.13;20.20;;;;;;;4.85;72.98;98975.16;5135919;28;20055;-68
2022/11/14 07:34:14;;;;;;;56.40;23.30;;;;;;;4.87;73.28;98965.38;5137735;28;20121;-68
2022/11/14 07:37:23;;;;;;;52.08;24.63;;;;;;;4.97;72.96;98969.03;5137887;28;20082;-70
2022/11/14 07:40:32;;;;;;;52.25;23.13;;;;;;;4.96;72.96;98983.09;5138703;28;20054;-68
2022/11/14 07:43:44;;;;;;;49.22;23.17;;;;;;;4.82;72.81;98976.19;5140851;28;20090;-70
2022/11/14 07:46:53;;;;;;;40.72;19.17;;;;;;;4.78;72.57;98979.16;5140667;28;20042;-73
2022/11/14 07:50:03;;;;;;;43.67;20.40;;;;;;;4.66;73.04;98983.47;5134576;28;20058;-71
2022/11/14 07:53:12;;;;;;;48.45;21.35;;;;;;;4.56;72.89;98972.75;5140760;28;20656;-70
2022/11/14 07:56:21;;;;;;;38.65;17.92;;;;;;;4.68;72.58;98987.66;5139555;28;20468;-71
2022/11/14 07:59:30;;;;;;;46.13;21.35;;;;;;;4.73;72.05;99003.09;5131888;28;20129;-71
2022/11/14 08:02:39;;;;;;;59.47;24.45;;;;;;;4.82;72.51;99006.88;5141702;28;20065;-71
2022/11/14 08:05:48;;;;;;;48.80;20.90;;;;;;;4.81;72.91;99015.72;5135493;28;20055;-71
2022/11/14 08:08:57;;;;;;;47.88;22.02;;;;;;;5.01;72.82;99020.41;5137426;28;20066;-72
2022/11/14 08:12:06;;;;;;;43.72;19.67;;;;;;;5.14;72.63;99008.09;5137631;28;20072;-70
2022/11/14 08:15:15;;;;;;;51.75;22.55;;;;;;;5.24;73.53;99004.81;5131036;28;20058;-72
2022/11/14 08:18:24;;;;;;;147.23;60.30;;;;;;;5.16;72.85;98995.66;5137781;28;20105;-71
2022/11/14 08:21:35;;;;;;;48.10;21.45;;;;;;;5.25;72.82;98988.91;5138771;28;20177;-72
2022/11/14 08:24:44;;;;;;;42.05;19.65;;;;;;;5.40;73.63;99002.75;5140576;28;20181;-70
2022/11/14 08:27:53;;;;;;;45.70;19.85;;;;;;;5.54;73.55;99015.72;5135888;28;20070;-73
2022/11/14 08:31:03;;;;;;;47.80;20.27;;;;;;;5.57;73.57;99009.41;5137751;28;20046;-71
2022/11/14 08:34:12;;;;;;;47.42;21.52;;;;;;;5.67;72.60;99013.06;5139216;28;20055;-70
2022/11/14 08:37:21;;;;;;;70.05;27.42;;;;;;;5.70;73.28;99009.38;5140536;28;20061;-72
2022/11/14 08:40:30;;;;;;;46.90;19.77;;;;;;;5.96;72.86;99028.50;5138025;28;20496;-70
2022/11/14 08:43:39;;;;;;;52.28;21.45;;;;;;;6.06;72.74;99021.59;5139942;28;20137;-71
2022/11/14 08:46:49;;;;;;;49.03;20.20;;;;;;;6.18;72.91;99027.75;5137695;28;20047;-72
2022/11/14 08:49:58;;;;;;;48.00;19.35;;;;;;;6.09;73.37;99024.88;5136865;28;20138;-73
2022/11/14 08:53:07;;;;;;;50.50;19.23;;;;;;;6.15;73.61;99031.44;5138467;28;20154;-70
2022/11/14 08:56:16;;;;;;;52.72;19.73;;;;;;;6.17;73.65;99012.91;5138035;28;20468;-69
2022/11/14 08:59:25;;;;;;;43.10;18.73;;;;;;;6.43;73.29;99030.22;5136102;28;20069;-73
2022/11/14 09:02:33;;;;;;;39.92;17.98;;;;;;;6.24;75.28;99014.13;5138408;28;20051;-74
2022/11/14 09:05:43;;;;;;;39.90;14.20;;;;;;;6.45;77.45;99014.28;5140380;28;20223;-72
2022/11/14 09:08:52;;;;;;;48.38;17.63;;;;;;;6.69;76.98;99030.00;5136382;28;20549;-70
2022/11/14 09:12:01;;;;;;;45.63;20.27;;;;;;;7.07;74.69;99025.22;5136376;28;20054;-74
2022/11/14 09:15:10;;;;;;;43.22;18.38;;;;;;;7.09;74.41;99019.00;5139195;28;20078;-70
2022/11/14 09:18:19;;;;;;;47.97;18.75;;;;;;;7.17;74.07;99006.88;5139883;28;20062;-71
2022/11/14 09:21:28;;;;;;;39.30;17.83;;;;;;;6.81;75.91;99029.88;5137437;28;20065;-74
2022/11/14 09:24:37;;;;;;;40.28;17.90;;;;;;;7.16;75.20;99028.09;5139162;28;20607;-72
2022/11/14 09:27:46;;;;;;;41.13;17.52;;;;;;;7.23;74.91;99011.66;5139767;28;20538;-72
2022/11/14 09:31:04;;;;;;;42.30;17.15;;;;;;;7.35;75.12;99027.47;5138526;28;20456;-72
2022/11/14 09:34:12;;;;;;;38.17;16.50;;;;;;;7.44;74.70;99027.56;5139692;28;20084;-72
2022/11/14 09:37:21;;;;;;;36.97;16.80;;;;;;;7.60;74.11;99023.69;5138436;28;20073;-73
2022/11/14 09:40:52;;;;;;;37.97;15.95;;;;;;;7.63;74.82;99010.25;5137829;28;20543;-74
2022/11/14 09:44:16;;;;;;;34.83;16.80;;;;;;;7.77;74.47;99017.88;5137250;28;20058;-70
2022/11/14 09:47:49;;;;;;;37.08;15.63;;;;;;;7.77;75.38;98991.47;5137156;28;20535;-73
2022/11/14 09:51:07;;;;;;;32.92;15.50;;;;;;;7.98;76.16;98999.47;5133416;28;20125;-71
2022/11/14 09:54:24;;;;;;;29.20;14.60;;;;;;;8.34;75.02;99005.25;5139505;28;20407;-73
2022/11/14 09:57:33;;;;;;;35.42;14.85;;;;;;;8.34;74.65;99000.78;5137227;28;20513;-73
2022/11/14 10:01:04;;;;;;;34.10;16.05;;;;;;;8.36;74.91;98977.72;5137022;28;20053;-70
2022/11/14 10:04:50;;;;;;;34.92;16.13;;;;;;;8.52;74.94;98982.59;5138577;28;20517;-71
2022/11/14 10:08:14;;;;;;;37.35;16.75;;;;;;;8.58;74.68;98975.94;5137675;28;20500;-71
2022/11/14 10:11:37;;;;;;;;;;;;;;;8.78;74.83;98974.22;5140605;28;20085;-71
2022/11/14 10:15:11;;;;;;;36.97;16.77;;;;;;;8.77;75.20;98964.59;5139922;28;19964;-69
2022/11/14 10:18:53;;;;;;;59.17;27.90;;;;;;;8.93;75.57;98976.34;5140872;28;20054;-71
2022/11/14 10:22:20;;;;;;;68.97;30.17;;;;;;;9.05;75.26;98973.63;5137067;28;20061;-71
2022/11/14 10:25:45;;;;;;;67.95;28.40;;;;;;;9.11;74.57;98968.63;5136048;28;20744;-71
2022/11/14 10:29:19;;;;;;;53.15;24.15;;;;;;;9.22;74.14;98970.31;5136393;28;20057;-70
2022/11/14 10:32:58;;;;;;;51.80;24.17;;;;;;;9.12;74.06;98970.31;5137895;28;20058;-71
2022/11/14 10:36:22;;;;;;;47.58;21.65;;;;;;;9.21;74.62;98966.03;5137161;28;20066;-71
2022/11/14 10:39:53;;;;;;;46.50;23.20;;;;;;;9.53;74.57;98965.78;5137116;28;20085;-71
2022/11/14 10:43:19;;;;;;;48.25;22.30;;;;;;;9.72;75.01;98956.19;5136031;28;20117;-71
2022/11/14 10:46:34;;;;;;;29.17;13.75;;;;;;;10.05;75.71;98971.63;5135864;28;20062;-73
2022/11/14 10:49:46;;;;;;;21.35;10.18;;;;;;;10.47;75.24;98973.16;5136543;28;20054;-71
2022/11/14 10:53:00;;;;;;;20.45;8.93;;;;;;;10.59;73.70;98971.97;5134890;28;20217;-71
2022/11/14 10:56:13;;;;;;;18.07;9.43;;;;;;;10.69;75.37;98975.41;5136408;28;20082;-71
2022/11/14 10:59:23;;;;;;;15.48;8.55;;;;;;;10.91;73.91;98962.78;5137709;28;20063;-72
2022/11/14 11:02:51;;;;;;;18.33;8.68;;;;;;;10.97;74.03;98956.91;5136249;28;20070;-72
2022/11/14 11:06:01;;;;;;;16.08;8.02;;;;;;;10.88;74.85;98957.78;5135219;28;20087;-72
2022/11/14 11:12:53;;;;;;;15.65;7.60;;;;;;;11.26;73.90;98943.47;5137617;28;20051;-73
2022/11/14 11:16:03;;;;;;;14.27;6.93;;;;;;;11.49;74.14;98933.25;5140583;28;20182;-75
2022/11/14 11:19:24;;;;;;;12.73;6.82;;;;;;;11.84;73.14;98939.53;5139942;28;20062;-76
2022/11/14 11:22:37;;;;;;;13.50;6.57;;;;;;;11.87;72.84;98928.63;5140595;28;20050;-72
2022/11/14 11:25:59;;;;;;;14.50;7.03;;;;;;;12.18;71.46;98929.84;5142990;28;20055;-76
2022/11/14 11:29:11;;;;;;;15.60;7.07;;;;;;;12.26;72.23;98931.75;5141468;28;20392;-71
2022/11/14 11:32:25;;;;;;;15.23;6.90;;;;;;;12.53;70.87;98920.13;5138278;28;20047;-72
2022/11/14 11:35:34;;;;;;;12.20;5.90;;;;;;;12.19;72.30;98912.94;5140895;28;20065;-71
2022/11/14 11:38:43;;;;;;;13.05;5.53;;;;;;;12.53;70.34;98922.78;5141377;28;20078;-72
2022/11/14 11:41:56;;;;;;;8.07;4.70;;;;;;;12.34;70.79;98891.09;5137909;28;20089;-71
2022/11/14 11:45:21;;;;;;;8.75;3.95;;;;;;;12.28;69.88;98915.63;5141831;28;20093;-70
2022/11/14 11:48:36;;;;;;;6.47;3.97;;;;;;;12.37;69.32;98909.38;5139829;28;20094;-72
2022/11/14 11:51:46;;;;;;;5.38;3.53;;;;;;;12.60;68.22;98899.03;5141521;28;20101;-74
2022/11/14 11:55:07;;;;;;;5.55;3.80;;;;;;;12.54;68.21;98903.16;5137422;28;20108;-76
2022/11/14 11:58:26;;;;;;;6.72;3.95;;;;;;;12.62;68.02;98899.72;5140239;28;20085;-70
2022/11/14 12:01:35;;;;;;;5.53;3.55;;;;;;;12.34;68.98;98899.91;5139805;28;20497;-73
2022/11/14 12:04:44;;;;;;;7.50;3.72;;;;;;;12.44;69.19;98889.16;5141800;28;20426;-74
2022/11/14 12:08:34;;;;;;;5.47;3.28;;;;;;;12.38;68.55;98879.13;5142291;23;20062;-73
2022/11/14 12:12:00;;;;;;;5.20;3.63;;;;;;;12.42;69.50;98883.16;5120854;28;20055;-73
2022/11/14 12:15:28;;;;;;;6.90;3.38;;;;;;;12.39;69.02;98884.31;5120230;28;20054;-74
2022/11/14 12:19:05;;;;;;;6.32;3.47;;;;;;;12.14;70.04;98888.63;5120733;28;20138;-73
2022/11/14 12:22:51;;;;;;;5.82;4.03;;;;;;;11.77;70.56;98851.66;5122414;28;20066;-73
2022/11/14 12:26:43;;;;;;;5.50;3.30;;;;;;;12.36;69.25;98884.63;5117804;28;20525;-73
2022/11/14 12:30:07;;;;;;;7.15;3.40;;;;;;;12.51;68.89;98889.34;5117353;29;20581;-73
2022/11/14 12:33:28;;;;;;;5.50;2.90;;;;;;;12.43;68.67;98887.50;5120497;29;20078;-73
2022/11/14 12:36:41;;;;;;;7.00;3.35;;;;;;;12.29;68.70;98888.91;5118562;28;20478;-73
2022/11/14 12:40:00;;;;;;;4.80;3.08;;;;;;;12.49;69.43;98884.19;5116550;28;20106;-73
2022/11/14 12:43:29;;;;;;;4.93;3.28;;;;;;;12.59;68.69;98858.31;5118204;29;20621;-72
2022/11/14 12:47:03;;;;;;;6.82;2.95;;;;;;;12.80;68.92;98873.84;5120491;29;20130;-73
2022/11/14 12:50:38;;;;;;;8.00;3.20;;;;;;;12.84;68.44;98869.88;5120499;29;20497;-73
2022/11/14 12:53:47;;;;;;;5.55;2.97;;;;;;;12.85;68.25;98868.88;5120902;29;20047;-72
2022/11/14 12:57:08;;;;;;;10.32;3.45;;;;;;;12.81;69.53;98861.38;5117101;28;20051;-73
2022/11/14 13:00:18;;;;;;;5.47;2.97;;;;;;;12.88;67.99;98867.72;5119375;29;20141;-72
2022/11/14 13:03:50;;;;;;;4.88;2.47;;;;;;;12.74;69.68;98865.69;5118081;29;20050;-73
2022/11/14 13:07:17;;;;;;;6.57;2.80;;;;;;;12.88;68.12;98868.56;5115952;29;20058;-73
2022/11/14 13:10:30;;;;;;;4.93;2.42;;;;;;;13.27;67.31;98852.03;5116631;28;20450;-74
2022/11/14 13:24:56;;;;;;;4.07;2.22;;;;;;;12.94;66.67;98861.75;5117667;29;20094;-73
2022/11/14 13:28:36;;;;;;;5.00;1.85;;;;;;;12.94;66.87;98862.56;5116940;29;20054;-73
2022/11/14 13:31:50;;;;;;;6.82;3.13;;;;;;;12.90;67.28;98858.56;5118568;29;20050;-74
2022/11/14 13:35:03;;;;;;;8.35;2.60;;;;;;;12.88;66.82;98854.41;5117345;29;20686;-73
2022/11/14 13:38:18;;;;;;;3.08;2.17;;;;;;;13.16;65.10;98852.31;5118214;28;20421;-72
2022/11/14 13:41:33;;;;;;;;;;;;;;;12.99;65.78;98856.78;5117296;29;20138;-73
2022/11/14 13:45:37;;;;;;;2.90;2.25;;;;;;;13.07;66.57;98854.13;5115940;28;20397;-74
2022/11/14 13:48:50;;;;;;;5.20;3.17;;;;;;;13.17;66.03;98852.16;5118930;28;20454;-73
2022/11/14 13:51:59;;;;;;;5.43;2.35;;;;;;;12.88;66.43;98844.63;5118833;29;20047;-72
2022/11/14 13:55:19;;;;;;;5.40;2.40;;;;;;;12.99;65.54;98840.00;5118964;29;20085;-73
2022/11/14 13:59:00;;;;;;;7.55;2.70;;;;;;;12.82;66.17;98847.09;5115318;28;20060;-73
2022/11/14 14:02:09;;;;;;;4.90;2.53;;;;;;;12.87;66.13;98847.44;5119583;29;20079;-72
2022/11/14 14:06:06;;;;;;;3.30;2.03;;;;;;;12.87;66.10;98839.44;5118184;29;20058;-72
2022/11/14 14:09:27;;;;;;;5.50;2.47;;;;;;;12.88;66.25;98851.75;5075880;29;20194;-72
2022/11/14 14:12:51;;;;;;;12.98;2.70;;;;;;;13.05;65.64;98850.81;5075890;29;20159;-73
2022/11/14 14:16:33;;;;;;;3.40;2.27;;;;;;;13.29;64.81;98851.88;5099352;29;20067;-73
2022/11/14 14:19:52;;;;;;;2.92;1.88;;;;;;;13.47;63.50;98841.91;5099696;29;20095;-72
2022/11/14 14:23:38;;;;;;;5.80;2.25;;;;;;;13.48;64.72;98845.41;5098525;29;20154;-73
2022/11/14 14:27:00;;;;;;;3.67;2.10;;;;;;;13.59;63.34;98848.56;5098824;29;20067;-73
2022/11/14 14:30:12;;;;;;;4.05;2.42;;;;;;;13.49;63.70;98839.91;5099307;29;20436;-72
2022/11/14 14:33:21;;;;;;;4.65;2.40;;;;;;;13.92;63.17;98835.22;5098928;29;20466;-72
2022/11/14 14:36:30;;;;;;;4.53;2.20;;;;;;;13.81;64.19;98844.41;5099524;29;20062;-72
2022/11/14 14:39:39;;;;;;;3.70;2.28;;;;;;;13.88;62.52;98844.56;5099331;29;20544;-73
2022/11/14 14:42:48;;;;;;;4.60;2.25;;;;;;;13.82;63.60;98850.56;5099006;29;20501;-72
2022/11/14 14:45:57;;;;;;;5.30;2.13;;;;;;;13.92;62.72;98845.88;5100144;29;20272;-73
2022/11/14 14:49:06;;;;;;;5.93;2.08;;;;;;;14.00;62.69;98850.34;5118291;28;20101;-73
2022/11/14 14:52:35;;;;;;;6.47;2.67;;;;;;;14.05;62.95;98850.69;5121568;28;20055;-73
2022/11/14 14:55:55;;;;;;;3.25;2.33;;;;;;;14.17;61.84;98840.50;5121603;29;20055;-73
2022/11/14 14:59:19;;;;;;;5.07;2.53;;;;;;;13.93;62.35;98846.72;5119105;28;20063;-73
2022/11/14 15:02:28;;;;;;;4.95;2.78;;;;;;;13.80;63.17;98853.38;5124553;29;20105;-73
2022/11/14 15:05:37;;;;;;;6.18;3.15;;;;;;;13.70;63.86;98857.22;5125049;29;20059;-73
2022/11/14 15:08:47;;;;;;;5.82;2.65;;;;;;;13.88;63.28;98854.41;5125438;29;20063;-73
2022/11/14 15:11:58;;;;;;;6.50;3.30;;;;;;;14.15;62.18;98851.34;5125885;29;20395;-73
2022/11/14 15:15:12;;;;;;;5.85;3.20;;;;;;;13.88;63.21;98860.56;5124791;29;20070;-73
2022/11/14 15:18:29;;;;;;;6.93;3.42;;;;;;;14.08;62.56;98861.84;5122248;29;20086;-73